createdAt,value
2023-05-14T07:22:15.787Z,98.8
2023-05-14T07:28:04.667Z,98.3
2023-05-14T07:33:55.398Z,97.2
2023-05-14T07:39:47.339Z,98.5
2023-05-14T07:45:39.407Z,98.4
2023-05-14T07:51:29.628Z,98
2023-05-14T07:57:28.322Z,97.2
2023-05-14T08:03:25.693Z,94.8
2023-05-14T08:09:18.126Z,92.5
2023-05-14T08:15:09.015Z,90.2
2023-05-14T08:20:59.712Z,88.6
2023-05-14T08:26:52.866Z,87.5
2023-05-14T08:32:43.789Z,85.9
2023-05-14T08:38:35.639Z,85
2023-05-14T08:44:27.185Z,83.5
2023-05-14T08:50:23.171Z,83.4
2023-05-14T08:56:16.024Z,80.9
2023-05-14T09:02:08.787Z,82
2023-05-14T09:08:01.844Z,79.7
2023-05-14T09:13:53.951Z,78.3
2023-05-14T09:19:45.630Z,79.6
2023-05-14T09:25:36.737Z,76.8
2023-05-14T09:31:28.886Z,77.9
2023-05-14T09:37:20.365Z,76.5
2023-05-14T09:43:12.911Z,78.3
2023-05-14T09:49:04.957Z,76
2023-05-14T09:54:58.763Z,75.8
2023-05-14T10:00:50.897Z,75.1
2023-05-14T10:06:43.958Z,73
2023-05-14T10:12:35.930Z,72.4
2023-05-14T10:18:27.857Z,68.8
2023-05-14T10:24:19.077Z,69.1
2023-05-14T10:30:11.974Z,71.3
2023-05-14T10:36:05.919Z,71.3
2023-05-14T10:41:58.646Z,69.4
2023-05-14T10:47:48.923Z,62
2023-05-14T10:53:42.809Z,61.6
2023-05-14T10:59:37.265Z,64.6
2023-05-14T11:05:29.672Z,62.9
2023-05-14T11:11:21.360Z,60.9
2023-05-14T11:17:14.471Z,60.7
2023-05-14T11:23:09.611Z,60.1
2023-05-14T11:29:01.991Z,60
2023-05-14T11:34:53.932Z,58.5
2023-05-14T11:40:46.679Z,57.1
2023-05-14T11:46:37.258Z,55.3
2023-05-14T11:52:28.051Z,58.1
2023-05-14T11:58:21.694Z,60.1
2023-05-14T12:04:13.028Z,59.2
2023-05-14T12:10:05.027Z,59.9
2023-05-14T12:16:08.923Z,60.1
2023-05-14T12:22:00.855Z,58
2023-05-14T12:27:52.851Z,57.8
2023-05-14T12:33:46.894Z,56.4
2023-05-14T12:39:42.010Z,56.7
2023-05-14T12:45:34.689Z,55.8
2023-05-14T12:51:28.318Z,53.7
2023-05-14T12:57:19.604Z,53.1
2023-05-14T13:03:12.207Z,53
2023-05-14T13:09:04.962Z,52.4
2023-05-14T13:14:58.416Z,53.3
2023-05-14T13:20:53.947Z,52
2023-05-14T13:26:50.134Z,52.2
2023-05-14T13:32:44.605Z,51
2023-05-14T13:38:41.027Z,51.2
2023-05-14T13:44:32.636Z,49.1
2023-05-14T13:50:26.449Z,49.6
2023-05-14T13:56:18.848Z,47.5
2023-05-14T14:02:19.043Z,47.9
2023-05-14T14:08:25.801Z,47.6
2023-05-14T14:14:21.753Z,47.6
2023-05-14T14:20:14.582Z,46.5
2023-05-14T14:26:07.077Z,48.3
2023-05-14T14:31:59.563Z,47.1
2023-05-14T14:37:52.911Z,47
2023-05-14T14:43:45.868Z,45.7
2023-05-14T14:49:37.643Z,45.4
2023-05-14T14:55:30.739Z,45.7
2023-05-14T15:01:24.004Z,45.1
2023-05-14T15:07:15.851Z,45.4
2023-05-14T15:13:08.541Z,45.7
2023-05-14T15:18:59.959Z,45
2023-05-14T15:24:52.235Z,45.3
2023-05-14T15:30:46.300Z,45.8
2023-05-14T15:36:40.224Z,49.8
2023-05-14T15:42:34.408Z,45.9
2023-05-14T15:49:41.579Z,44.9
2023-05-14T15:55:44.095Z,44.2
2023-05-14T16:01:40.280Z,45.3
2023-05-14T16:07:38.545Z,45.5
2023-05-14T16:13:31.667Z,45.7
2023-05-14T16:19:22.941Z,47.5
2023-05-14T16:25:13.744Z,48
2023-05-14T16:31:05.700Z,47.2
2023-05-14T16:37:00.621Z,48.1
2023-05-14T16:43:06.078Z,48.4
2023-05-14T16:48:57.079Z,47.6
2023-05-14T16:54:47.913Z,48.9
2023-05-14T17:00:43.348Z,49
2023-05-14T17:06:36.253Z,49.1
2023-05-14T17:12:28.054Z,50.3
2023-05-14T17:18:23.033Z,49.9
2023-05-14T17:24:24.994Z,50.2
2023-05-14T17:30:16.385Z,49.5
2023-05-14T17:36:08.061Z,49.9
2023-05-14T17:42:06.929Z,50.2
2023-05-14T17:48:00.124Z,50.6
2023-05-14T17:53:52.956Z,49.3
2023-05-14T18:00:03.290Z,50
2023-05-14T18:06:06.073Z,50.2
2023-05-14T18:12:06.818Z,50
2023-05-14T18:18:00.334Z,51.3
2023-05-14T18:23:54.476Z,51.7
2023-05-14T18:29:58.286Z,51.6
2023-05-14T18:35:51.075Z,52.2
2023-05-14T18:41:42.993Z,53.3
2023-05-14T18:47:40.063Z,56.6
2023-05-14T18:53:42.783Z,59.3
2023-05-14T18:59:48.023Z,61.7
2023-05-14T19:05:48.681Z,63.7
2023-05-14T19:11:41.676Z,66.8
2023-05-14T19:17:33.772Z,65.4
2023-05-14T19:23:39.060Z,66
2023-05-14T19:29:41.856Z,69
2023-05-14T19:35:37.318Z,69.8
2023-05-14T19:41:43.403Z,68.1
2023-05-14T19:47:35.692Z,67.8
2023-05-14T19:53:55.921Z,67.1
2023-05-14T20:00:09.549Z,69
2023-05-14T20:06:12.485Z,69.5
2023-05-14T20:12:19.835Z,69.9
2023-05-14T20:18:17.916Z,68.2
2023-05-14T20:24:13.402Z,68.9
2023-05-14T20:30:05.914Z,68.8
2023-05-14T20:35:56.839Z,71
2023-05-14T20:41:48.096Z,71.3
2023-05-14T20:47:44.614Z,73
2023-05-14T20:53:36.818Z,74
2023-05-14T20:59:42.370Z,74.8
2023-05-14T21:05:32.379Z,76
2023-05-14T21:11:36.307Z,76.8
2023-05-14T21:17:29.081Z,77.7
2023-05-14T21:23:21.034Z,78.4
2023-05-14T21:29:12.559Z,78.8
2023-05-14T21:35:03.725Z,80.6
2023-05-14T21:40:55.860Z,80.3
2023-05-14T21:46:47.667Z,80.7
2023-05-14T21:52:39.588Z,81.7
2023-05-14T21:58:31.515Z,81.8
2023-05-14T22:04:24.635Z,82.6
2023-05-14T22:10:16.716Z,84
2023-05-14T22:16:15.020Z,84.5
2023-05-14T22:22:04.748Z,83.7
2023-05-14T22:27:56.994Z,85.1
2023-05-14T22:33:48.709Z,85.6
2023-05-14T22:39:40.347Z,86
2023-05-14T22:45:32.308Z,86.9
2023-05-14T22:51:24.534Z,86.2
2023-05-14T22:57:16.006Z,86.5
2023-05-14T23:03:07.926Z,88.2
2023-05-14T23:09:01.279Z,87.8
2023-05-14T23:14:53.069Z,89.3
2023-05-14T23:20:44.525Z,88.3
2023-05-14T23:26:35.128Z,92.6
2023-05-14T23:32:27.539Z,90.1
2023-05-14T23:38:20.643Z,90
2023-05-14T23:44:17.559Z,90.4
2023-05-14T23:50:09.617Z,90.3
2023-05-14T23:56:01.204Z,90.8
